createdAt,value
2023-03-06T00:00:53.383Z,1.10
2023-03-06T00:03:21.026Z,1.20
2023-03-06T00:05:48.100Z,1.10
2023-03-06T00:08:15.352Z,1.10
2023-03-06T00:10:42.220Z,1.10
2023-03-06T00:13:13.030Z,1.10
2023-03-06T00:15:40.298Z,1.10
2023-03-06T00:18:07.753Z,1.00
2023-03-06T00:20:35.068Z,1.00
2023-03-06T00:23:01.948Z,1.00
2023-03-06T00:25:28.804Z,1.00
2023-03-06T00:27:55.729Z,1.00
2023-03-06T00:30:24.676Z,1.00
2023-03-06T00:32:53.400Z,1.00
2023-03-06T00:35:20.847Z,1.00
2023-03-06T00:37:47.732Z,1.00
2023-03-06T00:40:17.571Z,1.00
2023-03-06T00:42:44.480Z,1.00
2023-03-06T00:45:11.738Z,1.00
2023-03-06T00:47:39.489Z,1.00
2023-03-06T00:50:07.077Z,1.00
2023-03-06T00:52:33.914Z,1.00
2023-03-06T00:55:00.601Z,1.10
2023-03-06T00:57:27.404Z,1.10
2023-03-06T00:59:54.160Z,1.10
2023-03-06T01:02:21.132Z,1.10
2023-03-06T01:04:47.925Z,1.00
2023-03-06T01:07:14.681Z,1.10
2023-03-06T01:09:42.748Z,1.10
2023-03-06T01:12:09.665Z,1.00
2023-03-06T01:14:36.434Z,1.00
2023-03-06T01:17:03.406Z,0.90
2023-03-06T01:19:30.239Z,0.90
2023-03-06T01:21:57.185Z,0.90
2023-03-06T01:24:25.981Z,0.90
2023-03-06T01:26:56.897Z,0.80
2023-03-06T01:29:23.675Z,0.80
2023-03-06T01:31:50.808Z,0.80
2023-03-06T01:34:17.640Z,0.80
2023-03-06T01:36:44.388Z,0.80
2023-03-06T01:39:11.812Z,0.80
2023-03-06T01:41:38.633Z,0.80
2023-03-06T01:44:05.474Z,0.80
2023-03-06T01:46:38.755Z,0.80
2023-03-06T01:49:22.425Z,0.80
2023-03-06T01:51:57.407Z,0.90
2023-03-06T01:54:31.697Z,1.00
2023-03-06T01:57:05.845Z,1.00
2023-03-06T01:59:35.062Z,1.00
2023-03-06T02:02:02.902Z,1.10
2023-03-06T02:04:30.497Z,1.10
2023-03-06T02:07:01.116Z,1.20
2023-03-06T02:09:30.990Z,1.20
2023-03-06T02:11:57.766Z,1.20
2023-03-06T02:14:25.013Z,1.30
2023-03-06T02:16:52.015Z,1.30
2023-03-06T02:19:40.326Z,1.30
2023-03-06T02:22:07.211Z,1.30
2023-03-06T02:24:49.668Z,1.40
2023-03-06T02:27:17.652Z,1.30
2023-03-06T02:29:44.733Z,1.30
2023-03-06T02:32:12.157Z,1.40
2023-03-06T02:34:38.852Z,1.40
2023-03-06T02:37:09.501Z,1.40
2023-03-06T02:39:41.511Z,1.40
2023-03-06T02:42:08.896Z,1.40
2023-03-06T02:44:36.695Z,1.40
2023-03-06T02:47:04.997Z,1.40
2023-03-06T02:49:31.839Z,1.30
2023-03-06T02:51:58.518Z,1.30
2023-03-06T02:54:25.301Z,1.30
2023-03-06T02:56:52.056Z,1.20
2023-03-06T02:59:18.792Z,1.10
2023-03-06T08:22:00.708Z,3.80
2023-03-06T08:24:27.489Z,3.70
2023-03-06T08:26:54.216Z,3.70
2023-03-06T08:29:20.974Z,3.70
2023-03-06T08:31:48.554Z,3.80
2023-03-06T08:34:17.883Z,3.90
2023-03-06T08:36:44.963Z,3.90
2023-03-06T08:39:13.103Z,4.00
2023-03-06T08:41:40.428Z,3.90
2023-03-06T08:44:07.281Z,4.00
2023-03-06T08:46:35.479Z,4.10
2023-03-06T08:49:02.436Z,4.00
2023-03-06T08:51:29.262Z,4.00
2023-03-06T08:53:57.136Z,4.10
2023-03-06T08:56:25.386Z,4.10
2023-03-06T08:58:53.276Z,4.10
2023-03-06T09:01:23.236Z,4.20
2023-03-06T09:03:50.915Z,4.40
2023-03-06T09:06:18.007Z,4.40
2023-03-06T09:08:44.901Z,4.40
2023-03-06T09:11:15.770Z,4.50
2023-03-06T09:13:43.072Z,4.50
2023-03-06T09:16:11.148Z,4.60
2023-03-06T09:18:37.992Z,4.60
2023-03-06T09:21:05.676Z,4.60
2023-03-06T09:23:32.496Z,4.60
2023-03-06T09:26:00.584Z,4.60
2023-03-06T09:28:27.651Z,4.70
2023-03-06T09:30:54.954Z,4.70
2023-03-06T09:33:22.024Z,4.80
2023-03-06T09:35:56.812Z,4.70
2023-03-06T09:38:27.502Z,4.70
2023-03-06T09:43:41.985Z,4.90
2023-03-06T09:46:31.620Z,5.00
2023-03-06T09:49:37.603Z,4.90
2023-03-06T09:52:26.405Z,5.00
2023-03-06T09:55:04.776Z,5.00
2023-03-06T09:57:36.838Z,5.00
2023-03-06T10:00:30.761Z,5.10
2023-03-06T10:03:14.687Z,5.20
2023-03-06T10:05:47.234Z,5.10
2023-03-06T10:08:35.920Z,5.00
2023-03-06T10:11:08.598Z,5.10
2023-03-06T10:13:46.647Z,5.20
2023-03-06T10:16:28.199Z,5.30
2023-03-06T10:19:01.162Z,5.40
2023-03-06T10:21:46.698Z,5.50
2023-03-06T10:24:19.678Z,5.50
2023-03-06T10:27:03.614Z,5.60
2023-03-06T10:29:56.383Z,5.50
2023-03-06T10:32:49.048Z,5.60
2023-03-06T10:35:21.716Z,5.70
2023-03-06T10:37:49.561Z,5.60
2023-03-06T10:40:20.091Z,5.70
2023-03-06T10:42:46.980Z,5.70
2023-03-06T10:45:16.209Z,5.70
2023-03-06T10:47:44.189Z,5.70
2023-03-06T10:50:28.292Z,5.80
2023-03-06T10:53:07.373Z,5.90
2023-03-06T10:55:36.687Z,6.00
2023-03-06T10:58:24.002Z,6.00
2023-03-06T11:01:26.408Z,5.90
2023-03-06T11:03:54.210Z,5.80
2023-03-06T11:06:34.626Z,5.90
2023-03-06T11:09:24.553Z,6.00
2023-03-06T11:11:52.462Z,6.10
2023-03-06T11:14:23.134Z,6.10
2023-03-06T11:16:54.018Z,6.00
2023-03-06T11:19:28.969Z,6.10
2023-03-06T11:22:22.250Z,6.20
2023-03-06T11:24:51.590Z,6.20
2023-03-06T11:27:30.372Z,6.20
2023-03-06T11:29:59.094Z,6.20
2023-03-06T11:32:36.374Z,6.30
2023-03-06T11:35:10.220Z,6.40
2023-03-06T11:37:54.106Z,6.60
2023-03-06T11:40:27.994Z,6.70
2023-03-06T11:43:12.018Z,6.80
2023-03-06T11:45:46.274Z,6.70
2023-03-06T11:48:26.894Z,6.60
2023-03-06T11:50:59.299Z,6.30
2023-03-06T11:53:40.767Z,6.20
2023-03-06T11:56:10.339Z,6.20
2023-03-06T11:58:53.865Z,6.40
2023-03-06T12:01:32.648Z,6.40
2023-03-06T12:04:23.654Z,6.40
2023-03-06T12:07:25.390Z,6.40
2023-03-06T12:10:19.004Z,6.40
2023-03-06T12:12:48.573Z,6.40
2023-03-06T12:15:46.411Z,6.40
2023-03-06T12:18:36.881Z,6.50
2023-03-06T12:21:32.566Z,6.70
2023-03-06T12:24:28.825Z,6.70
2023-03-06T12:27:12.409Z,6.80
2023-03-06T12:29:49.367Z,6.90
2023-03-06T12:32:57.905Z,6.70
2023-03-06T12:35:27.868Z,6.80
2023-03-06T12:38:27.938Z,6.80
2023-03-06T12:41:07.045Z,6.60
2023-03-06T12:44:05.164Z,6.60
2023-03-06T12:46:43.304Z,6.60
2023-03-06T12:49:32.431Z,6.60
2023-03-06T12:52:01.257Z,6.60
2023-03-06T12:54:33.482Z,6.50
2023-03-06T12:57:01.068Z,6.50
2023-03-06T12:59:44.553Z,6.50
2023-03-06T13:02:36.429Z,6.40
2023-03-06T13:05:18.488Z,6.40
2023-03-06T13:07:52.801Z,6.40
2023-03-06T13:10:36.569Z,6.40
2023-03-06T13:13:24.495Z,6.40
2023-03-06T13:16:03.560Z,6.40
2023-03-06T13:18:33.299Z,6.40
2023-03-06T13:21:00.108Z,6.50
2023-03-06T13:23:32.710Z,6.40
2023-03-06T13:26:05.317Z,6.30
2023-03-06T13:28:50.523Z,6.30
2023-03-06T13:31:28.135Z,6.30
2023-03-06T13:34:00.889Z,6.20
2023-03-06T13:36:38.277Z,6.20
2023-03-06T13:39:06.312Z,6.20
2023-03-06T13:41:35.191Z,6.20
2023-03-06T13:44:25.371Z,6.20
2023-03-06T13:47:01.761Z,6.20
2023-03-06T13:49:29.782Z,6.30
2023-03-06T13:52:19.458Z,6.20
2023-03-06T13:55:24.404Z,6.30
2023-03-06T13:58:10.651Z,6.30
2023-03-06T14:00:59.097Z,6.20
2023-03-06T14:03:55.239Z,6.30
2023-03-06T14:06:42.272Z,6.20
2023-03-06T14:09:28.949Z,6.10
2023-03-06T14:12:08.553Z,6.10
2023-03-06T14:14:40.535Z,6.10
2023-03-06T14:17:14.984Z,6.10
2023-03-06T14:19:42.525Z,6.10
2023-03-06T14:22:17.282Z,6.00
2023-03-06T14:24:53.961Z,6.00
2023-03-06T14:27:20.928Z,6.00
2023-03-06T14:29:48.773Z,6.00
2023-03-06T14:32:22.455Z,6.10
2023-03-06T14:34:49.402Z,6.10
2023-03-06T14:37:22.848Z,6.20
2023-03-06T14:39:50.132Z,6.20
2023-03-06T14:42:24.281Z,6.20
2023-03-06T14:45:07.318Z,6.30
2023-03-06T14:47:36.216Z,6.30
2023-03-06T14:50:30.191Z,6.20
2023-03-06T14:52:59.499Z,6.20
2023-03-06T14:55:28.388Z,6.30
2023-03-06T14:58:12.024Z,6.30
2023-03-06T15:00:45.362Z,6.40
2023-03-06T15:03:23.494Z,6.50
2023-03-06T15:05:51.512Z,6.60
2023-03-06T15:08:25.295Z,6.50
2023-03-06T15:11:10.223Z,6.50
2023-03-06T15:13:37.220Z,6.50
2023-03-06T15:16:06.940Z,6.40
2023-03-06T15:18:39.668Z,6.30
2023-03-06T15:21:07.913Z,6.30
2023-03-06T15:23:41.106Z,6.30
2023-03-06T15:26:34.537Z,6.20
2023-03-06T15:29:12.309Z,6.10
2023-03-06T15:31:42.078Z,6.10
2023-03-06T15:34:11.541Z,6.10
2023-03-06T15:36:39.759Z,6.10
2023-03-06T15:39:25.476Z,6.10
2023-03-06T15:42:07.409Z,6.00
2023-03-06T15:44:34.352Z,6.10
2023-03-06T15:47:08.672Z,6.10
2023-03-06T15:49:38.421Z,6.00
2023-03-06T15:52:08.806Z,6.00
2023-03-06T15:54:35.797Z,6.00
2023-03-06T15:57:04.857Z,5.90
2023-03-06T15:59:41.428Z,5.90
2023-03-06T16:02:18.602Z,5.90
2023-03-06T16:04:46.105Z,5.90
2023-03-06T16:07:13.634Z,5.90
2023-03-06T16:09:41.743Z,5.90
2023-03-06T16:12:17.665Z,5.80
2023-03-06T16:14:47.439Z,5.80
2023-03-06T16:17:15.033Z,5.80
2023-03-06T16:19:42.215Z,5.80
2023-03-06T16:22:09.110Z,5.80
2023-03-06T16:24:37.251Z,5.80
2023-03-06T16:27:04.803Z,5.80
2023-03-06T16:29:31.644Z,5.70
2023-03-06T16:32:00.827Z,5.70
2023-03-06T16:34:27.711Z,5.70
2023-03-06T16:36:54.579Z,5.70
2023-03-06T16:39:23.492Z,5.70
2023-03-06T16:41:50.984Z,5.60
2023-03-06T16:44:17.937Z,5.70
2023-03-06T16:46:47.184Z,5.60
2023-03-06T16:49:20.293Z,5.60
2023-03-06T16:51:47.065Z,5.50
2023-03-06T16:54:14.142Z,5.50
2023-03-06T16:56:41.440Z,5.40
2023-03-06T16:59:08.481Z,5.30
2023-03-06T17:01:35.311Z,5.20
2023-03-06T17:04:02.589Z,5.20
2023-03-06T17:06:29.587Z,5.10
2023-03-06T17:08:58.084Z,5.10
2023-03-06T17:11:25.126Z,5.10
2023-03-06T17:13:51.976Z,5.00
2023-03-06T17:16:18.813Z,5.00
2023-03-06T17:18:46.893Z,4.90
2023-03-06T17:21:17.151Z,4.90
2023-03-06T17:23:44.535Z,4.90
2023-03-06T17:26:18.756Z,4.90
2023-03-06T17:28:46.038Z,4.90
2023-03-06T17:31:21.737Z,4.90
2023-03-06T17:33:48.901Z,4.90
2023-03-06T17:36:16.184Z,4.80
2023-03-06T17:38:43.140Z,4.80
2023-03-06T17:41:11.100Z,4.70
2023-03-06T17:43:39.123Z,4.70
2023-03-06T17:46:08.913Z,4.70
2023-03-06T17:48:36.523Z,4.70
2023-03-06T17:51:04.029Z,4.60
2023-03-06T17:53:31.882Z,4.60
2023-03-06T17:55:58.587Z,4.60
2023-03-06T17:58:26.356Z,4.60
2023-03-06T18:00:53.277Z,4.50
2023-03-06T18:03:20.146Z,4.50
2023-03-06T18:05:46.989Z,4.60
2023-03-06T18:08:14.135Z,4.60
2023-03-06T18:10:41.892Z,4.50
2023-03-06T18:13:10.747Z,4.50
2023-03-06T18:15:41.639Z,4.50
2023-03-06T18:18:09.190Z,4.50
2023-03-06T18:20:41.600Z,4.50
2023-03-06T18:23:08.522Z,4.50
2023-03-06T18:25:35.568Z,4.50
2023-03-06T18:28:02.433Z,4.50
2023-03-06T18:30:29.285Z,4.50
2023-03-06T18:32:56.270Z,4.50
2023-03-06T18:35:23.042Z,4.50
2023-03-06T18:37:49.899Z,4.50
2023-03-06T18:40:16.943Z,4.50
2023-03-06T18:42:43.887Z,4.50
2023-03-06T18:45:11.585Z,4.50
2023-03-06T18:47:39.518Z,4.50
2023-03-06T18:50:07.160Z,4.50
2023-03-06T18:52:34.888Z,4.50
2023-03-06T18:55:01.748Z,4.50
2023-03-06T18:57:30.345Z,4.40
2023-03-06T18:59:57.274Z,4.40
2023-03-06T19:02:24.202Z,4.30
2023-03-06T19:04:52.790Z,4.30
2023-03-06T19:07:19.888Z,4.30
2023-03-06T19:09:48.318Z,4.40
2023-03-06T19:12:15.590Z,4.40
2023-03-06T19:14:42.342Z,4.40
2023-03-06T19:17:09.178Z,4.40
2023-03-06T19:19:35.898Z,4.40
2023-03-06T19:22:05.593Z,4.40
2023-03-06T19:24:32.358Z,4.40
2023-03-06T19:26:59.138Z,4.40
2023-03-06T19:29:25.921Z,4.30
2023-03-06T19:31:52.808Z,4.30
2023-03-06T19:34:19.580Z,4.30
2023-03-06T19:36:46.256Z,4.30
2023-03-06T19:39:13.032Z,4.30
2023-03-06T19:41:39.764Z,4.30
2023-03-06T19:44:06.847Z,4.30
2023-03-06T19:46:34.570Z,4.30
2023-03-06T19:49:02.699Z,4.20
2023-03-06T19:51:29.668Z,4.10
2023-03-06T19:53:57.590Z,4.10
2023-03-06T19:56:29.068Z,4.10
2023-03-06T19:58:56.549Z,4.10
2023-03-06T20:01:24.973Z,4.00
2023-03-06T20:03:58.651Z,4.00
2023-03-06T20:06:28.751Z,4.00
2023-03-06T20:08:55.582Z,3.90
2023-03-06T20:11:31.369Z,3.90
2023-03-06T20:13:59.536Z,3.90
2023-03-06T20:16:28.088Z,3.90
2023-03-06T20:18:58.007Z,3.80
2023-03-06T20:21:25.912Z,3.80
2023-03-06T20:23:54.463Z,3.80
2023-03-06T20:26:21.385Z,3.80
2023-03-06T20:28:48.276Z,3.80
2023-03-06T20:31:17.476Z,3.80
2023-03-06T20:33:45.796Z,3.80
2023-03-06T20:36:21.241Z,3.80
2023-03-06T20:38:48.360Z,3.90
2023-03-06T20:41:16.896Z,3.80
2023-03-06T20:43:43.850Z,3.80
2023-03-06T20:46:11.817Z,3.90
2023-03-06T20:48:38.943Z,3.90
2023-03-06T20:51:08.413Z,3.90
2023-03-06T20:53:35.200Z,3.90
2023-03-06T20:56:02.044Z,4.00
2023-03-06T20:58:31.511Z,4.00
2023-03-06T21:01:00.293Z,4.10
2023-03-06T21:03:29.211Z,4.10
2023-03-06T21:05:55.950Z,4.00
2023-03-06T21:08:23.199Z,4.00
2023-03-06T21:10:50.952Z,4.00
2023-03-06T21:13:18.117Z,4.10
2023-03-06T21:15:47.359Z,4.10
2023-03-06T21:18:14.236Z,4.10
2023-03-06T21:20:41.608Z,4.10
2023-03-06T21:23:09.084Z,4.10
2023-03-06T21:25:36.114Z,4.10
2023-03-06T21:28:02.912Z,4.20
2023-03-06T21:30:30.285Z,4.20
2023-03-06T21:32:57.101Z,4.20
2023-03-06T21:35:23.926Z,4.10
2023-03-06T21:37:50.686Z,4.10
2023-03-06T21:40:17.518Z,4.20
2023-03-06T21:42:44.297Z,4.30
2023-03-06T21:45:12.005Z,4.30
2023-03-06T21:47:40.708Z,4.30
2023-03-06T21:50:09.889Z,4.30
2023-03-06T21:52:37.071Z,4.30
2023-03-06T21:55:04.227Z,4.20
2023-03-06T21:57:30.999Z,4.20
2023-03-06T21:59:57.815Z,4.30
2023-03-06T22:02:24.727Z,4.30
2023-03-06T22:04:52.689Z,4.20
2023-03-06T22:07:22.896Z,4.20
2023-03-06T22:09:52.757Z,4.20
2023-03-06T22:12:19.856Z,4.20
2023-03-06T22:14:46.669Z,4.20
2023-03-06T22:17:13.895Z,4.20
2023-03-06T22:19:40.590Z,4.20
2023-03-06T22:22:08.289Z,4.20
2023-03-06T22:24:36.683Z,4.20
2023-03-06T22:27:03.588Z,4.20
2023-03-06T22:29:30.430Z,4.20
2023-03-06T22:31:57.405Z,4.20
2023-03-06T22:34:24.233Z,4.20
2023-03-06T22:36:50.924Z,4.10
2023-03-06T22:39:17.633Z,4.10
2023-03-06T22:41:44.549Z,4.10
2023-03-06T22:44:17.048Z,4.00
2023-03-06T22:46:44.128Z,4.10
2023-03-06T22:49:12.590Z,4.10
2023-03-06T22:51:40.248Z,4.20
2023-03-06T22:54:07.750Z,4.20
2023-03-06T22:56:34.969Z,4.30
2023-03-06T22:59:01.736Z,4.20
2023-03-06T23:01:30.655Z,4.20
2023-03-06T23:04:00.288Z,4.20
2023-03-06T23:06:38.123Z,4.20
2023-03-06T23:09:22.849Z,4.20
2023-03-06T23:12:09.162Z,4.10
2023-03-06T23:14:54.732Z,4.20
2023-03-06T23:17:40.247Z,4.20
2023-03-06T23:20:25.766Z,4.20
2023-03-06T23:23:11.459Z,4.20
2023-03-06T23:25:41.029Z,4.20
2023-03-06T23:28:07.837Z,4.20
2023-03-06T23:30:34.665Z,4.20
2023-03-06T23:33:01.393Z,4.20
2023-03-06T23:35:28.229Z,4.20
2023-03-06T23:37:54.972Z,4.30
2023-03-06T23:40:22.042Z,4.30
2023-03-06T23:42:48.810Z,4.30
2023-03-06T23:45:15.686Z,4.30
2023-03-06T23:47:42.516Z,4.20
2023-03-06T23:50:09.983Z,4.10
2023-03-06T23:52:37.649Z,4.10
2023-03-06T23:55:05.621Z,4.10
2023-03-06T23:57:32.734Z,4.20
2023-03-06T23:59:59.542Z,4.20
